createdAt,value
2018-09-20T00:00:01.563Z,1013.76
2018-09-20T00:01:02.108Z,1013.74
2018-09-20T00:02:02.163Z,1013.74
2018-09-20T00:03:01.487Z,1013.72
2018-09-20T00:04:01.506Z,1013.69
2018-09-20T00:05:01.433Z,1013.72
2018-09-20T00:06:01.409Z,1013.68
2018-09-20T00:07:01.390Z,1013.70
2018-09-20T00:08:01.707Z,1013.67
2018-09-20T00:09:01.334Z,1013.65
2018-09-20T00:10:02.160Z,1013.65
2018-09-20T00:11:02.165Z,1013.63
2018-09-20T00:12:01.726Z,1013.61
2018-09-20T00:13:02.159Z,1013.63
2018-09-20T00:14:02.163Z,1013.66
2018-09-20T00:15:01.194Z,1013.66
2018-09-20T00:16:01.201Z,1013.63
2018-09-20T00:17:01.173Z,1013.65
2018-09-20T00:18:01.156Z,1013.68
2018-09-20T00:19:01.088Z,1013.69
2018-09-20T00:20:01.069Z,1013.70
2018-09-20T00:21:01.036Z,1013.73
2018-09-20T00:22:01.233Z,1013.68
2018-09-20T00:23:00.991Z,1013.71
2018-09-20T00:24:01.667Z,1013.65
2018-09-20T00:25:01.675Z,1013.69
2018-09-20T00:26:00.912Z,1013.71
2018-09-20T00:27:01.224Z,1013.73
2018-09-20T00:28:00.881Z,1013.69
2018-09-20T00:29:00.838Z,1013.74
2018-09-20T00:30:01.669Z,1013.71
2018-09-20T00:31:01.670Z,1013.73
2018-09-20T00:32:00.821Z,1013.69
2018-09-20T00:33:00.760Z,1013.72
2018-09-20T00:34:00.736Z,1013.72
2018-09-20T00:35:01.670Z,1013.75
2018-09-20T00:36:00.665Z,1013.73
2018-09-20T00:37:00.717Z,1013.75
2018-09-20T00:38:00.614Z,1013.75
2018-09-20T00:39:00.637Z,1013.76
2018-09-20T00:40:00.565Z,1013.73
2018-09-20T00:41:00.545Z,1013.80
2018-09-20T00:42:00.560Z,1013.79
2018-09-20T00:43:00.721Z,1013.80
2018-09-20T00:44:00.730Z,1013.83
2018-09-20T00:45:00.442Z,1013.85
2018-09-20T00:46:00.419Z,1013.87
2018-09-20T00:47:01.168Z,1013.88
2018-09-20T00:48:00.723Z,1013.87
2018-09-20T00:49:00.416Z,1013.93
2018-09-20T00:50:01.169Z,1013.95
2018-09-20T00:51:01.172Z,1014.00
2018-09-20T00:52:01.168Z,1014.00
2018-09-20T00:53:00.242Z,1013.99
2018-09-20T00:54:00.273Z,1014.02
2018-09-20T00:55:00.199Z,1014.03
2018-09-20T00:56:00.169Z,1014.02
2018-09-20T00:57:00.670Z,1014.01
2018-09-20T00:58:00.678Z,1014.07
2018-09-20T00:59:00.231Z,1014.04
2018-09-20T01:00:00.079Z,1014.03
2018-09-20T01:01:00.091Z,1014.06
2018-09-20T01:02:00.020Z,1014.05
2018-09-20T01:02:59.997Z,1014.08
2018-09-20T01:04:00.674Z,1014.11
2018-09-20T01:05:00.726Z,1014.15
2018-09-20T01:05:59.917Z,1014.13
2018-09-20T01:06:59.893Z,1014.16
2018-09-20T01:07:59.871Z,1014.17
2018-09-20T01:08:59.846Z,1014.16
2018-09-20T01:09:59.879Z,1014.18
2018-09-20T01:11:00.672Z,1014.19
2018-09-20T01:12:00.673Z,1014.20
2018-09-20T01:12:59.749Z,1014.16
2018-09-20T01:13:59.719Z,1014.21
2018-09-20T01:15:00.228Z,1014.21
2018-09-20T01:15:59.728Z,1014.25
2018-09-20T01:16:59.656Z,1014.26
2018-09-20T01:18:00.174Z,1014.26
2018-09-20T01:18:59.608Z,1014.26
2018-09-20T01:20:00.180Z,1014.28
2018-09-20T01:20:59.604Z,1014.31
2018-09-20T01:22:00.176Z,1014.29
2018-09-20T01:23:00.174Z,1014.34
2018-09-20T01:23:59.481Z,1014.31
2018-09-20T01:24:59.464Z,1014.33
2018-09-20T01:25:59.470Z,1014.31
2018-09-20T01:26:59.414Z,1014.32
2018-09-20T01:27:59.378Z,1014.32
2018-09-20T01:28:59.355Z,1014.29
2018-09-20T01:29:59.345Z,1014.27
2018-09-20T01:30:59.731Z,1014.29
2018-09-20T01:31:59.730Z,1014.31
2018-09-20T01:32:59.259Z,1014.32
2018-09-20T01:34:00.191Z,1014.35
2018-09-20T01:35:00.178Z,1014.34
2018-09-20T01:35:59.223Z,1014.34
2018-09-20T01:36:59.682Z,1014.36
2018-09-20T01:37:59.187Z,1014.33
2018-09-20T01:38:59.681Z,1014.34
2018-09-20T01:39:59.683Z,1014.31
2018-09-20T01:40:59.064Z,1014.31
2018-09-20T01:41:59.681Z,1014.31
2018-09-20T01:42:59.234Z,1014.34
2018-09-20T01:43:58.981Z,1014.34
2018-09-20T01:44:58.957Z,1014.35
2018-09-20T01:45:59.679Z,1014.36
2018-09-20T01:46:59.238Z,1014.37
2018-09-20T01:47:58.933Z,1014.38
2018-09-20T01:48:58.874Z,1014.40
2018-09-20T01:49:59.695Z,1014.39
2018-09-20T01:50:58.815Z,1014.39
2018-09-20T01:51:58.833Z,1014.42
2018-09-20T01:52:58.766Z,1014.41
2018-09-20T01:53:58.739Z,1014.46
2018-09-20T01:54:58.713Z,1014.46
2018-09-20T01:55:59.685Z,1014.44
2018-09-20T01:56:58.737Z,1014.44
2018-09-20T01:57:58.652Z,1014.47
2018-09-20T01:58:58.620Z,1014.47
2018-09-20T01:59:58.740Z,1014.49
2018-09-20T02:00:58.567Z,1014.48
2018-09-20T02:01:58.541Z,1014.50
2018-09-20T02:02:59.189Z,1014.57
2018-09-20T02:03:58.490Z,1014.56
2018-09-20T02:04:58.523Z,1014.60
2018-09-20T02:05:59.188Z,1014.57
2018-09-20T02:06:59.193Z,1014.57
2018-09-20T02:07:59.190Z,1014.60
2018-09-20T02:08:58.370Z,1014.61
2018-09-20T02:09:58.394Z,1014.59
2018-09-20T02:10:58.326Z,1014.62
2018-09-20T02:11:59.197Z,1014.60
2018-09-20T02:12:59.221Z,1014.60
2018-09-20T02:13:58.251Z,1014.62
2018-09-20T02:14:58.877Z,1014.61
2018-09-20T02:15:58.199Z,1014.63
2018-09-20T02:16:58.691Z,1014.62
2018-09-20T02:17:58.153Z,1014.60
2018-09-20T02:18:58.169Z,1014.62
2018-09-20T02:19:58.688Z,1014.61
2018-09-20T02:20:58.247Z,1014.65
2018-09-20T02:21:58.059Z,1014.63
2018-09-20T02:22:58.694Z,1014.66
2018-09-20T02:23:58.055Z,1014.67
2018-09-20T02:24:57.979Z,1014.69
2018-09-20T02:25:57.958Z,1014.73
2018-09-20T02:26:57.932Z,1014.69
2018-09-20T02:27:58.691Z,1014.72
2018-09-20T02:28:57.933Z,1014.70
2018-09-20T02:29:58.693Z,1014.70
2018-09-20T02:30:57.832Z,1014.69
2018-09-20T02:31:58.699Z,1014.72
2018-09-20T02:32:57.787Z,1014.71
2018-09-20T02:33:57.816Z,1014.74
2018-09-20T02:34:57.791Z,1014.80
2018-09-20T02:35:58.697Z,1014.76
2018-09-20T02:36:57.694Z,1014.78
2018-09-20T02:37:57.661Z,1014.76
2018-09-20T02:38:57.756Z,1014.77
2018-09-20T02:39:58.216Z,1014.80
2018-09-20T02:40:57.591Z,1014.79
2018-09-20T02:41:57.580Z,1014.79
2018-09-20T02:42:57.541Z,1014.85
2018-09-20T02:43:57.587Z,1014.81
2018-09-20T02:44:58.235Z,1014.87
2018-09-20T02:45:58.196Z,1014.88
2018-09-20T02:46:57.442Z,1014.87
2018-09-20T02:47:57.412Z,1014.81
2018-09-20T02:48:57.755Z,1014.84
2018-09-20T02:49:57.370Z,1014.84
2018-09-20T02:50:57.349Z,1014.84
2018-09-20T02:51:57.316Z,1014.84
2018-09-20T02:52:58.200Z,1014.85
2018-09-20T02:53:57.755Z,1014.86
2018-09-20T02:54:57.748Z,1014.87
2018-09-20T02:55:57.216Z,1014.82
2018-09-20T02:56:57.259Z,1014.80
2018-09-20T02:57:57.706Z,1014.82
2018-09-20T02:58:57.172Z,1014.80
2018-09-20T02:59:57.704Z,1014.80
2018-09-20T03:00:57.702Z,1014.77
2018-09-20T03:01:57.144Z,1014.85
2018-09-20T03:02:57.248Z,1014.82
2018-09-20T03:03:57.261Z,1014.81
2018-09-20T03:04:57.007Z,1014.82
2018-09-20T03:05:57.259Z,1014.85
2018-09-20T03:06:57.710Z,1014.84
2018-09-20T03:07:56.917Z,1014.86
2018-09-20T03:08:57.703Z,1014.86
2018-09-20T03:09:57.259Z,1014.86
2018-09-20T03:10:56.843Z,1014.83
2018-09-20T03:11:57.712Z,1014.87
2018-09-20T03:12:56.798Z,1014.86
2018-09-20T03:13:56.778Z,1014.87
2018-09-20T03:14:56.786Z,1014.87
2018-09-20T03:15:56.715Z,1014.82
2018-09-20T03:16:57.208Z,1014.83
2018-09-20T03:17:56.713Z,1014.80
2018-09-20T03:18:56.643Z,1014.79
2018-09-20T03:19:56.617Z,1014.78
2018-09-20T03:20:56.594Z,1014.81
2018-09-20T03:21:59.208Z,1014.76
2018-09-20T03:23:01.758Z,1014.82
2018-09-20T03:23:57.213Z,1014.79
2018-09-20T03:24:56.498Z,1014.75
2018-09-20T03:25:57.205Z,1014.73
2018-09-20T03:26:56.759Z,1014.75
2018-09-20T03:27:56.415Z,1014.73
2018-09-20T03:28:57.206Z,1014.76
2018-09-20T03:29:57.205Z,1014.77
2018-09-20T03:30:57.212Z,1014.78
2018-09-20T03:31:56.419Z,1014.80
2018-09-20T03:32:57.205Z,1014.80
2018-09-20T03:33:56.754Z,1014.79
2018-09-20T03:34:57.212Z,1014.80
2018-09-20T03:35:56.210Z,1014.80
2018-09-20T03:36:56.222Z,1014.80
2018-09-20T03:37:56.156Z,1014.83
2018-09-20T03:38:56.132Z,1014.79
2018-09-20T03:39:56.153Z,1014.77
2018-09-20T03:40:56.089Z,1014.79
2018-09-20T03:41:56.123Z,1014.86
2018-09-20T03:42:56.035Z,1014.82
2018-09-20T03:43:56.046Z,1014.83
2018-09-20T03:44:55.983Z,1014.79
2018-09-20T03:45:55.952Z,1014.90
2018-09-20T03:46:56.709Z,1014.85
2018-09-20T03:47:55.901Z,1014.86
2018-09-20T03:48:55.940Z,1014.84
2018-09-20T03:49:55.851Z,1014.88
2018-09-20T03:50:55.823Z,1014.88
2018-09-20T03:51:56.711Z,1014.87
2018-09-20T03:52:55.771Z,1014.83
2018-09-20T03:53:56.768Z,1014.87
2018-09-20T03:54:55.724Z,1014.86
2018-09-20T03:55:55.693Z,1014.87
2018-09-20T03:56:55.672Z,1014.88
2018-09-20T03:57:58.618Z,1014.93
2018-09-20T03:58:55.630Z,1014.91
2018-09-20T03:59:55.763Z,1014.90
2018-09-20T04:00:55.624Z,1014.91
2018-09-20T04:01:55.563Z,1014.89
2018-09-20T04:02:56.214Z,1014.90
2018-09-20T04:03:55.490Z,1014.91
2018-09-20T04:04:56.219Z,1014.91
2018-09-20T04:05:55.788Z,1014.89
2018-09-20T04:06:56.218Z,1014.93
2018-09-20T04:07:55.393Z,1014.92
2018-09-20T04:08:56.233Z,1014.91
2018-09-20T04:09:55.337Z,1014.92
2018-09-20T04:10:55.775Z,1014.93
2018-09-20T04:11:55.343Z,1014.96
2018-09-20T04:12:56.218Z,1015.00
2018-09-20T04:13:55.234Z,1014.99
2018-09-20T04:14:55.722Z,1015.00
2018-09-20T04:15:55.721Z,1015.00
2018-09-20T04:16:55.277Z,1015.00
2018-09-20T04:17:55.129Z,1014.97
2018-09-20T04:18:55.731Z,1015.00
2018-09-20T04:19:55.077Z,1015.02
2018-09-20T04:20:55.049Z,1015.04
2018-09-20T04:21:55.074Z,1015.05
2018-09-20T04:22:54.999Z,1015.05
2018-09-20T04:23:55.733Z,1015.04
2018-09-20T04:24:55.720Z,1015.01
2018-09-20T04:25:54.917Z,1015.02
2018-09-20T04:26:54.939Z,1015.02
2018-09-20T04:27:55.720Z,1015.00
2018-09-20T04:28:54.859Z,1015.01
2018-09-20T04:29:55.719Z,1015.05
2018-09-20T04:30:54.790Z,1015.06
2018-09-20T04:31:54.846Z,1015.07
2018-09-20T04:32:54.793Z,1015.05
2018-09-20T04:33:55.223Z,1015.08
2018-09-20T04:34:54.688Z,1015.11
2018-09-20T04:35:55.220Z,1015.08
2018-09-20T04:36:55.217Z,1015.10
2018-09-20T04:37:54.775Z,1015.12
2018-09-20T04:38:54.591Z,1015.10
2018-09-20T04:39:55.230Z,1015.09
2018-09-20T04:40:55.221Z,1015.08
2018-09-20T04:41:54.513Z,1015.08
2018-09-20T04:42:54.786Z,1015.09
2018-09-20T04:43:54.452Z,1015.07
2018-09-20T04:44:55.223Z,1015.09
2018-09-20T04:45:54.414Z,1015.09
2018-09-20T04:46:55.223Z,1015.06
2018-09-20T04:47:54.403Z,1015.06
2018-09-20T04:48:55.221Z,1015.10
2018-09-20T04:49:54.349Z,1015.08
2018-09-20T04:50:55.223Z,1015.09
2018-09-20T04:51:55.237Z,1015.09
2018-09-20T04:52:54.277Z,1015.13
2018-09-20T04:53:54.200Z,1015.15
2018-09-20T04:54:54.169Z,1015.14
2018-09-20T04:55:54.141Z,1015.13
2018-09-20T04:56:54.128Z,1015.14
2018-09-20T04:57:54.281Z,1015.17
2018-09-20T04:58:54.103Z,1015.17
2018-09-20T04:59:54.754Z,1015.22
2018-09-20T05:00:54.019Z,1015.20
2018-09-20T05:01:54.725Z,1015.23
2018-09-20T05:02:53.958Z,1015.21
2018-09-20T05:03:53.980Z,1015.23
2018-09-20T05:04:53.918Z,1015.23
2018-09-20T05:05:53.961Z,1015.24
2018-09-20T05:06:53.859Z,1015.26
2018-09-20T05:07:54.729Z,1015.24
2018-09-20T05:08:53.851Z,1015.26
2018-09-20T05:09:53.795Z,1015.27
2018-09-20T05:10:54.734Z,1015.30
2018-09-20T05:11:53.727Z,1015.32
2018-09-20T05:12:53.700Z,1015.29
2018-09-20T05:13:53.799Z,1015.36
2018-09-20T05:14:53.651Z,1015.37
2018-09-20T05:15:53.626Z,1015.38
2018-09-20T05:16:54.261Z,1015.42
2018-09-20T05:17:54.255Z,1015.45
2018-09-20T05:18:53.590Z,1015.45
2018-09-20T05:19:53.527Z,1015.47
2018-09-20T05:20:54.255Z,1015.48
2018-09-20T05:21:53.475Z,1015.51
2018-09-20T05:22:53.445Z,1015.48
2018-09-20T05:23:53.622Z,1015.49
2018-09-20T05:24:53.389Z,1015.51
2018-09-20T05:25:53.366Z,1015.48
2018-09-20T05:26:53.341Z,1015.50
2018-09-20T05:27:54.231Z,1015.51
2018-09-20T05:28:53.332Z,1015.53
2018-09-20T05:29:53.294Z,1015.56
2018-09-20T05:30:53.308Z,1015.56
2018-09-20T05:31:53.212Z,1015.58
2018-09-20T05:32:53.191Z,1015.56
2018-09-20T05:33:53.168Z,1015.57
2018-09-20T05:34:53.747Z,1015.59
2018-09-20T05:35:53.312Z,1015.58
2018-09-20T05:36:53.736Z,1015.59
2018-09-20T05:37:53.058Z,1015.59
2018-09-20T05:38:53.736Z,1015.55
2018-09-20T05:39:53.737Z,1015.60
2018-09-20T05:40:53.286Z,1015.54
2018-09-20T05:41:53.737Z,1015.58
2018-09-20T05:42:52.965Z,1015.61
2018-09-20T05:43:53.737Z,1015.61
2018-09-20T05:44:52.873Z,1015.61
2018-09-20T05:45:52.894Z,1015.62
2018-09-20T05:46:52.875Z,1015.63
2018-09-20T05:47:52.795Z,1015.65
2018-09-20T05:48:52.841Z,1015.64
2018-09-20T05:49:52.747Z,1015.62
2018-09-20T05:50:52.783Z,1015.63
2018-09-20T05:51:52.815Z,1015.60
2018-09-20T05:52:52.714Z,1015.65
2018-09-20T05:53:52.645Z,1015.63
2018-09-20T05:54:53.251Z,1015.63
2018-09-20T05:55:52.614Z,1015.64
2018-09-20T05:56:52.610Z,1015.65
2018-09-20T05:57:52.599Z,1015.66
2018-09-20T05:58:53.150Z,1015.64
2018-09-20T05:59:52.493Z,1015.62
2018-09-20T06:00:53.237Z,1015.64
2018-09-20T06:01:52.486Z,1015.65
2018-09-20T06:02:52.432Z,1015.66
2018-09-20T06:03:52.438Z,1015.69
2018-09-20T06:04:53.243Z,1015.72
2018-09-20T06:05:52.353Z,1015.76
2018-09-20T06:06:52.314Z,1015.76
2018-09-20T06:07:52.340Z,1015.75
2018-09-20T06:08:52.301Z,1015.78
2018-09-20T06:09:52.242Z,1015.74
2018-09-20T06:10:52.223Z,1015.78
2018-09-20T06:11:52.190Z,1015.77
2018-09-20T06:12:52.220Z,1015.71
2018-09-20T06:13:52.186Z,1015.73
2018-09-20T06:14:52.119Z,1015.72
2018-09-20T06:15:52.118Z,1015.70
2018-09-20T06:16:52.741Z,1015.74
2018-09-20T06:17:52.046Z,1015.72
2018-09-20T06:18:52.059Z,1015.75
2018-09-20T06:19:51.992Z,1015.77
2018-09-20T06:20:52.033Z,1015.75
2018-09-20T06:21:51.961Z,1015.74
2018-09-20T06:22:51.919Z,1015.75
2018-09-20T06:23:51.936Z,1015.72
2018-09-20T06:24:51.915Z,1015.71
2018-09-20T06:25:52.744Z,1015.69
2018-09-20T06:26:52.742Z,1015.72
2018-09-20T06:27:51.843Z,1015.71
2018-09-20T06:28:51.823Z,1015.72
2018-09-20T06:29:51.795Z,1015.75
2018-09-20T06:30:51.726Z,1015.76
2018-09-20T06:31:52.243Z,1015.77
2018-09-20T06:32:52.653Z,1015.73
2018-09-20T06:33:51.652Z,1015.76
2018-09-20T06:34:51.694Z,1015.76
2018-09-20T06:35:51.599Z,1015.77
2018-09-20T06:36:51.593Z,1015.78
2018-09-20T06:37:51.552Z,1015.72
2018-09-20T06:38:51.584Z,1015.73
2018-09-20T06:39:51.506Z,1015.73
2018-09-20T06:40:51.528Z,1015.74
2018-09-20T06:41:51.455Z,1015.75
2018-09-20T06:42:51.434Z,1015.72
2018-09-20T06:43:51.465Z,1015.70
2018-09-20T06:44:51.389Z,1015.73
2018-09-20T06:45:51.357Z,1015.74
2018-09-20T06:46:51.336Z,1015.75
2018-09-20T06:47:51.311Z,1015.70
2018-09-20T06:48:51.339Z,1015.73
2018-09-20T06:49:51.266Z,1015.75
2018-09-20T06:50:51.239Z,1015.77
2018-09-20T06:51:51.759Z,1015.73
2018-09-20T06:52:51.192Z,1015.73
2018-09-20T06:53:51.209Z,1015.73
2018-09-20T06:54:51.144Z,1015.76
2018-09-20T06:55:51.122Z,1015.72
2018-09-20T06:56:51.142Z,1015.73
2018-09-20T06:57:51.077Z,1015.70
2018-09-20T06:58:51.049Z,1015.74
2018-09-20T06:59:51.025Z,1015.79
2018-09-20T07:00:51.049Z,1015.76
2018-09-20T07:01:50.984Z,1015.79
2018-09-20T07:02:50.985Z,1015.77
2018-09-20T07:03:51.751Z,1015.81
2018-09-20T07:04:50.928Z,1015.80
2018-09-20T07:05:50.936Z,1015.86
2018-09-20T07:06:51.785Z,1015.82
2018-09-20T07:07:50.884Z,1015.83
2018-09-20T07:08:50.830Z,1015.82
2018-09-20T07:09:50.794Z,1015.85
2018-09-20T07:10:50.783Z,1015.85
2018-09-20T07:11:50.746Z,1015.84
2018-09-20T07:12:50.780Z,1015.85
2018-09-20T07:13:50.790Z,1015.85
2018-09-20T07:14:50.683Z,1015.89
2018-09-20T07:15:50.654Z,1015.89
2018-09-20T07:16:51.258Z,1015.86
2018-09-20T07:17:50.810Z,1015.87
2018-09-20T07:18:50.630Z,1015.89
2018-09-20T07:19:50.570Z,1015.86
2018-09-20T07:20:50.542Z,1015.89
2018-09-20T07:21:50.520Z,1015.92
2018-09-20T07:22:50.504Z,1015.85
2018-09-20T07:23:50.524Z,1015.86
2018-09-20T07:24:50.453Z,1015.85
2018-09-20T07:25:50.436Z,1015.87
2018-09-20T07:26:50.411Z,1015.89
2018-09-20T07:27:50.388Z,1015.87
2018-09-20T07:28:50.813Z,1015.91
2018-09-20T07:29:50.344Z,1015.91
2018-09-20T07:30:50.335Z,1015.90
2018-09-20T07:31:51.262Z,1015.95
2018-09-20T07:32:50.318Z,1015.95
2018-09-20T07:33:50.339Z,1015.97
2018-09-20T07:34:50.236Z,1016.00
2018-09-20T07:35:50.762Z,1015.96
2018-09-20T07:36:50.192Z,1015.97
2018-09-20T07:37:50.184Z,1015.99
2018-09-20T07:38:50.195Z,1015.97
2018-09-20T07:39:50.186Z,1015.98
2018-09-20T07:40:50.106Z,1015.95
2018-09-20T07:41:50.081Z,1015.96
2018-09-20T07:42:50.066Z,1015.96
2018-09-20T07:43:50.042Z,1015.93
2018-09-20T07:44:50.060Z,1015.96
2018-09-20T07:45:50.763Z,1015.98
2018-09-20T07:46:49.972Z,1015.97
2018-09-20T07:47:49.949Z,1015.99
2018-09-20T07:48:49.975Z,1016.00
2018-09-20T07:49:49.906Z,1015.99
2018-09-20T07:50:49.930Z,1015.98
2018-09-20T07:51:49.902Z,1015.97
2018-09-20T07:52:49.846Z,1015.96
2018-09-20T07:53:49.887Z,1015.99
2018-09-20T07:54:50.768Z,1015.99
2018-09-20T07:55:49.795Z,1016.00
2018-09-20T07:56:49.887Z,1015.95
2018-09-20T07:57:49.752Z,1015.94
2018-09-20T07:58:49.757Z,1015.99
2018-09-20T07:59:50.269Z,1015.95
2018-09-20T08:00:49.671Z,1015.96
2018-09-20T08:01:49.707Z,1015.94
2018-09-20T08:02:50.314Z,1015.92
2018-09-20T08:03:49.652Z,1015.93
2018-09-20T08:04:49.616Z,1015.93
2018-09-20T08:05:49.568Z,1015.91
2018-09-20T08:06:49.600Z,1015.94
2018-09-20T08:07:49.527Z,1015.93
2018-09-20T08:08:49.502Z,1015.90
2018-09-20T08:09:49.488Z,1015.88
2018-09-20T08:10:49.460Z,1015.91
2018-09-20T08:11:49.481Z,1015.91
2018-09-20T08:12:49.419Z,1015.92
2018-09-20T08:13:49.450Z,1015.91
2018-09-20T08:14:49.385Z,1015.90
2018-09-20T08:15:49.369Z,1015.91
2018-09-20T08:16:49.342Z,1015.92
2018-09-20T08:17:49.350Z,1015.91
2018-09-20T08:18:49.287Z,1015.88
2018-09-20T08:19:49.334Z,1015.90
2018-09-20T08:20:49.778Z,1015.87
2018-09-20T08:21:49.326Z,1015.84
2018-09-20T08:22:49.775Z,1015.78
2018-09-20T08:23:49.776Z,1015.81
2018-09-20T08:24:49.160Z,1015.80
2018-09-20T08:25:49.143Z,1015.80
2018-09-20T08:26:49.167Z,1015.80
2018-09-20T08:27:49.131Z,1015.79
2018-09-20T08:28:49.079Z,1015.78
2018-09-20T08:29:49.781Z,1015.78
2018-09-20T08:30:49.035Z,1015.79
2018-09-20T08:31:49.056Z,1015.80
2018-09-20T08:32:48.989Z,1015.75
2018-09-20T08:33:49.037Z,1015.78
2018-09-20T08:34:48.947Z,1015.81
2018-09-20T08:35:48.943Z,1015.78
2018-09-20T08:36:48.906Z,1015.77
2018-09-20T08:37:48.972Z,1015.79
2018-09-20T08:38:48.924Z,1015.78
2018-09-20T08:39:48.843Z,1015.82
2018-09-20T08:40:49.778Z,1015.78
2018-09-20T08:41:48.801Z,1015.81
2018-09-20T08:42:48.782Z,1015.82
2018-09-20T08:43:48.843Z,1015.81
2018-09-20T08:44:49.285Z,1015.78
2018-09-20T08:45:49.283Z,1015.78
2018-09-20T08:46:48.713Z,1015.82
2018-09-20T08:47:48.672Z,1015.82
2018-09-20T08:48:48.709Z,1015.77
2018-09-20T08:49:48.630Z,1015.75
2018-09-20T08:50:48.610Z,1015.78
2018-09-20T08:51:48.590Z,1015.74
2018-09-20T08:52:48.569Z,1015.73
2018-09-20T08:53:48.590Z,1015.69
2018-09-20T08:54:49.281Z,1015.67
2018-09-20T08:55:49.190Z,1015.66
2018-09-20T08:56:48.538Z,1015.67
2018-09-20T08:57:48.465Z,1015.65
2018-09-20T08:58:48.443Z,1015.63
2018-09-20T08:59:48.470Z,1015.68
2018-09-20T09:00:48.442Z,1015.68
2018-09-20T09:01:48.384Z,1015.72
2018-09-20T09:02:48.360Z,1015.74
2018-09-20T09:03:48.342Z,1015.70
2018-09-20T09:04:48.320Z,1015.70
2018-09-20T09:05:48.344Z,1015.68
2018-09-20T09:06:48.306Z,1015.71
2018-09-20T09:07:48.257Z,1015.69
2018-09-20T09:08:48.238Z,1015.67
2018-09-20T09:09:48.226Z,1015.64
2018-09-20T09:10:48.241Z,1015.68
2018-09-20T09:11:48.227Z,1015.70
2018-09-20T09:12:48.156Z,1015.75
2018-09-20T09:13:48.136Z,1015.71
2018-09-20T09:14:48.116Z,1015.70
2018-09-20T09:15:48.173Z,1015.69
2018-09-20T09:16:48.088Z,1015.72
2018-09-20T09:17:48.056Z,1015.67
2018-09-20T09:18:48.049Z,1015.61
2018-09-20T09:19:48.070Z,1015.64
2018-09-20T09:20:48.008Z,1015.61
2018-09-20T09:21:48.794Z,1015.60
2018-09-20T09:22:47.964Z,1015.60
2018-09-20T09:23:47.936Z,1015.64
2018-09-20T09:24:47.976Z,1015.60
2018-09-20T09:25:47.895Z,1015.61
2018-09-20T09:26:47.873Z,1015.56
2018-09-20T09:27:47.854Z,1015.56
2018-09-20T09:28:47.856Z,1015.56
2018-09-20T09:29:47.856Z,1015.55
2018-09-20T09:30:47.842Z,1015.50
2018-09-20T09:31:48.295Z,1015.50
2018-09-20T09:32:47.755Z,1015.43
2018-09-20T09:33:47.734Z,1015.44
2018-09-20T09:34:47.718Z,1015.45
2018-09-20T09:35:47.737Z,1015.47
2018-09-20T09:36:47.675Z,1015.42
2018-09-20T09:37:47.658Z,1015.43
2018-09-20T09:38:47.634Z,1015.41
2018-09-20T09:39:47.613Z,1015.41
2018-09-20T09:40:47.651Z,1015.42
2018-09-20T09:41:47.579Z,1015.38
2018-09-20T09:42:47.540Z,1015.39
2018-09-20T09:43:47.524Z,1015.42
2018-09-20T09:44:47.511Z,1015.40
2018-09-20T09:45:47.537Z,1015.41
2018-09-20T09:46:47.482Z,1015.39
2018-09-20T09:47:47.454Z,1015.33
2018-09-20T09:48:47.432Z,1015.29
2018-09-20T09:49:47.421Z,1015.28
2018-09-20T09:50:47.437Z,1015.26
2018-09-20T09:51:47.427Z,1015.26
2018-09-20T09:52:47.360Z,1015.24
2018-09-20T09:53:47.335Z,1015.21
2018-09-20T09:54:47.383Z,1015.22
2018-09-20T09:55:47.293Z,1015.20
2018-09-20T09:56:47.310Z,1015.18
2018-09-20T09:57:47.275Z,1015.13
2018-09-20T09:58:47.822Z,1015.13
2018-09-20T09:59:47.249Z,1015.07
2018-09-20T10:00:47.234Z,1015.12
2018-09-20T10:01:47.805Z,1015.12
2018-09-20T10:02:47.195Z,1015.09
2018-09-20T10:03:47.137Z,1015.10
2018-09-20T10:04:47.115Z,1015.07
2018-09-20T10:05:47.141Z,1015.03
2018-09-20T10:06:47.131Z,1015.06
2018-09-20T10:07:47.054Z,1015.08
2018-09-20T10:08:47.040Z,1015.06
2018-09-20T10:09:47.063Z,1015.01
2018-09-20T10:10:46.999Z,1015.03
2018-09-20T10:11:46.974Z,1014.97
2018-09-20T10:12:46.962Z,1014.96
2018-09-20T10:13:46.987Z,1014.96
2018-09-20T10:14:46.971Z,1014.93
2018-09-20T10:15:46.923Z,1014.90
2018-09-20T10:16:46.896Z,1014.88
2018-09-20T10:17:46.910Z,1014.90
2018-09-20T10:18:47.823Z,1014.91
2018-09-20T10:19:46.919Z,1014.92
2018-09-20T10:20:46.809Z,1014.92
2018-09-20T10:21:46.779Z,1014.87
2018-09-20T10:22:46.761Z,1014.86
2018-09-20T10:23:46.751Z,1014.84
2018-09-20T10:24:46.781Z,1014.79
2018-09-20T10:25:46.702Z,1014.80
2018-09-20T10:26:46.682Z,1014.76
2018-09-20T10:27:46.666Z,1014.73
2018-09-20T10:28:46.645Z,1014.76
2018-09-20T10:29:46.679Z,1014.75
2018-09-20T10:30:46.619Z,1014.73
2018-09-20T10:31:46.591Z,1014.75
2018-09-20T10:32:46.565Z,1014.72
2018-09-20T10:33:46.589Z,1014.72
2018-09-20T10:34:46.573Z,1014.74
2018-09-20T10:35:46.553Z,1014.75
2018-09-20T10:36:46.490Z,1014.68
2018-09-20T10:37:46.466Z,1014.67
2018-09-20T10:38:46.449Z,1014.64
2018-09-20T10:39:46.429Z,1014.63
2018-09-20T10:40:46.455Z,1014.60
2018-09-20T10:41:46.433Z,1014.60
2018-09-20T10:42:46.370Z,1014.55
2018-09-20T10:43:46.352Z,1014.53
2018-09-20T10:44:46.336Z,1014.53
2018-09-20T10:45:46.333Z,1014.53
2018-09-20T10:46:46.336Z,1014.53
2018-09-20T10:47:46.275Z,1014.51
2018-09-20T10:48:46.251Z,1014.50
2018-09-20T10:49:46.232Z,1014.50
2018-09-20T10:50:46.275Z,1014.42
2018-09-20T10:51:46.248Z,1014.47
2018-09-20T10:52:46.823Z,1014.47
2018-09-20T10:53:46.164Z,1014.46
2018-09-20T10:54:46.149Z,1014.40
2018-09-20T10:55:46.117Z,1014.43
2018-09-20T10:56:46.140Z,1014.36
2018-09-20T10:57:46.076Z,1014.35
2018-09-20T10:58:46.063Z,1014.36
2018-09-20T10:59:46.036Z,1014.36
2018-09-20T11:00:46.017Z,1014.36
2018-09-20T11:01:46.040Z,1014.31
2018-09-20T11:02:46.378Z,1014.28
2018-09-20T11:03:45.976Z,1014.30
2018-09-20T11:04:45.946Z,1014.25
2018-09-20T11:05:45.933Z,1014.24
2018-09-20T11:06:45.901Z,1014.22
2018-09-20T11:07:45.928Z,1014.20
2018-09-20T11:08:45.864Z,1014.20
2018-09-20T11:09:45.890Z,1014.21
2018-09-20T11:10:45.852Z,1014.17
2018-09-20T11:11:45.804Z,1014.14
2018-09-20T11:12:45.782Z,1014.15
2018-09-20T11:13:45.764Z,1014.12
2018-09-20T11:14:45.795Z,1014.13
2018-09-20T11:15:45.730Z,1014.14
2018-09-20T11:16:46.782Z,1014.13
2018-09-20T11:17:45.700Z,1014.09
2018-09-20T11:18:45.711Z,1014.10
2018-09-20T11:19:45.645Z,1014.09
2018-09-20T11:20:45.627Z,1014.05
2018-09-20T11:21:45.606Z,1014.06
2018-09-20T11:22:45.645Z,1014.07
2018-09-20T11:23:45.608Z,1013.98
2018-09-20T11:24:45.597Z,1014.02
2018-09-20T11:25:45.592Z,1014.06
2018-09-20T11:26:45.512Z,1014.04
2018-09-20T11:27:45.489Z,1014.01
2018-09-20T11:28:45.474Z,1013.99
2018-09-20T11:29:45.505Z,1013.99
2018-09-20T11:30:45.440Z,1013.98
2018-09-20T11:31:45.416Z,1013.95
2018-09-20T11:32:45.396Z,1013.88
2018-09-20T11:33:45.373Z,1013.92
2018-09-20T11:34:45.402Z,1013.88
2018-09-20T11:35:45.337Z,1013.83
2018-09-20T11:36:45.326Z,1013.80
2018-09-20T11:37:45.295Z,1013.80
2018-09-20T11:38:45.279Z,1013.74
2018-09-20T11:39:45.308Z,1013.72
2018-09-20T11:40:45.242Z,1013.72
2018-09-20T11:41:45.218Z,1013.68
2018-09-20T11:42:45.205Z,1013.72
2018-09-20T11:43:45.222Z,1013.68
2018-09-20T11:44:45.206Z,1013.62
2018-09-20T11:45:45.140Z,1013.58
2018-09-20T11:46:45.244Z,1013.58
2018-09-20T11:47:45.105Z,1013.56
2018-09-20T11:48:45.089Z,1013.60
2018-09-20T11:49:45.116Z,1013.58
2018-09-20T11:50:45.047Z,1013.51
2018-09-20T11:51:45.030Z,1013.49
2018-09-20T11:52:45.049Z,1013.51
2018-09-20T11:53:44.988Z,1013.45
2018-09-20T11:54:44.965Z,1013.40
2018-09-20T11:55:44.954Z,1013.40
2018-09-20T11:56:44.930Z,1013.43
2018-09-20T11:57:44.955Z,1013.40
2018-09-20T11:58:44.888Z,1013.33
2018-09-20T11:59:45.843Z,1013.36
2018-09-20T12:00:44.850Z,1013.33
2018-09-20T12:01:44.934Z,1013.36
2018-09-20T12:02:45.349Z,1013.35
2018-09-20T12:03:44.800Z,1013.30
2018-09-20T12:04:44.778Z,1013.30